createdAt,value
2024-01-29T00:05:16.932Z,8.80
2024-01-29T00:19:40.066Z,8.80
2024-01-29T00:22:07.241Z,8.80
2024-01-29T00:24:45.412Z,8.80
2024-01-29T00:27:12.630Z,8.90
2024-01-29T00:29:39.814Z,8.90
2024-01-29T00:32:10.938Z,8.90
2024-01-29T00:34:40.053Z,8.90
2024-01-29T00:37:09.798Z,8.90
2024-01-29T00:39:37.054Z,8.90
2024-01-29T00:42:07.250Z,8.90
2024-01-29T00:44:36.267Z,9.00
2024-01-29T00:47:11.665Z,9.00
2024-01-29T00:49:39.114Z,9.00
2024-01-29T00:52:08.184Z,9.00
2024-01-29T00:54:35.448Z,9.00
2024-01-29T00:57:04.330Z,9.00
2024-01-29T01:14:28.390Z,8.80
2024-01-29T01:16:58.905Z,8.80
2024-01-29T01:19:26.301Z,8.70
2024-01-29T01:21:55.795Z,8.70
2024-01-29T01:24:28.578Z,8.70
2024-01-29T01:26:58.372Z,8.80
2024-01-29T01:29:32.789Z,8.80
2024-01-29T01:32:02.600Z,8.80
2024-01-29T01:34:32.331Z,8.90
2024-01-29T01:36:59.660Z,8.90
2024-01-29T01:39:26.960Z,8.90
2024-01-29T01:41:56.563Z,9.00
2024-01-29T01:44:23.871Z,9.00
2024-01-29T01:46:51.103Z,9.00
2024-01-29T01:49:23.708Z,9.00
2024-01-29T01:51:51.655Z,9.00
2024-01-29T01:54:18.827Z,9.00
2024-01-29T01:56:50.618Z,9.00
2024-01-29T01:59:17.850Z,9.10
2024-01-29T02:01:47.232Z,9.10
2024-01-29T02:04:14.485Z,9.10
2024-01-29T02:06:47.508Z,9.10
2024-01-29T02:09:27.451Z,9.20
2024-01-29T02:11:57.667Z,9.20
2024-01-29T02:14:25.933Z,9.20
2024-01-29T02:16:54.356Z,9.20
2024-01-29T02:19:24.772Z,9.20
2024-01-29T02:21:52.026Z,9.20
2024-01-29T02:24:23.522Z,9.30
2024-01-29T02:26:50.871Z,9.30
2024-01-29T02:29:21.872Z,9.20
2024-01-29T02:31:51.422Z,9.30
2024-01-29T02:34:21.262Z,9.30
2024-01-29T02:36:50.925Z,9.30
2024-01-29T02:39:19.611Z,9.20
2024-01-29T03:05:57.423Z,9.20
2024-01-29T03:08:29.205Z,9.20
2024-01-29T03:10:56.398Z,9.20
2024-01-29T03:13:23.748Z,9.20
2024-01-29T03:15:51.022Z,9.20
2024-01-29T03:18:18.177Z,9.20
2024-01-29T03:20:45.387Z,9.20
2024-01-29T03:23:12.737Z,9.20
2024-01-29T03:25:39.890Z,9.20
2024-01-29T03:28:07.201Z,9.20
2024-01-29T03:30:34.394Z,9.20
2024-01-29T03:33:02.825Z,9.20
2024-01-29T03:35:30.191Z,9.20
2024-01-29T03:38:00.057Z,9.20
2024-01-29T03:40:27.257Z,9.20
2024-01-29T03:42:54.346Z,9.20
2024-01-29T03:45:21.522Z,9.20
2024-01-29T03:47:48.672Z,9.20
2024-01-29T03:50:15.998Z,9.20
2024-01-29T03:52:43.200Z,9.20
2024-01-29T03:55:10.475Z,9.20
2024-01-29T03:57:39.806Z,9.20
2024-01-29T04:00:10.658Z,9.30
2024-01-29T04:02:41.773Z,9.30
2024-01-29T04:05:11.470Z,9.40
2024-01-29T04:07:38.821Z,9.40
2024-01-29T04:10:06.528Z,9.40
2024-01-29T04:12:33.689Z,9.40
2024-01-29T04:15:03.169Z,9.40
2024-01-29T04:17:30.810Z,9.40
2024-01-29T04:19:59.018Z,9.40
2024-01-29T04:22:26.867Z,9.40
2024-01-29T04:24:54.132Z,9.40
2024-01-29T04:27:21.396Z,9.40
2024-01-29T04:29:48.558Z,9.40
2024-01-29T04:32:16.371Z,9.40
2024-01-29T04:34:43.505Z,9.40
2024-01-29T04:37:11.094Z,9.40
2024-01-29T04:39:42.088Z,9.40
2024-01-29T04:42:10.094Z,9.40
2024-01-29T04:44:37.507Z,9.40
2024-01-29T04:47:05.024Z,9.40
2024-01-29T04:49:39.101Z,9.40
2024-01-29T04:52:06.846Z,9.40
2024-01-29T04:54:34.895Z,9.40
2024-01-29T04:57:10.733Z,9.50
2024-01-29T04:59:38.016Z,9.40
2024-01-29T05:02:09.028Z,9.50
2024-01-29T05:04:39.459Z,9.50
2024-01-29T05:07:20.169Z,9.40
2024-01-29T05:09:47.470Z,9.50
2024-01-29T05:12:14.753Z,9.50
2024-01-29T05:14:47.407Z,9.50
2024-01-29T05:17:14.651Z,9.50
2024-01-29T05:19:45.376Z,9.50
2024-01-29T05:22:13.807Z,9.50
2024-01-29T05:24:44.604Z,9.50
2024-01-29T05:27:12.926Z,9.50
2024-01-29T05:29:42.938Z,9.50
2024-01-29T05:32:10.188Z,9.50
2024-01-29T05:34:37.412Z,9.50
2024-01-29T05:37:04.864Z,9.50
2024-01-29T05:39:32.008Z,9.50
2024-01-29T05:41:59.246Z,9.50
2024-01-29T05:44:26.487Z,9.50
2024-01-29T05:46:58.237Z,9.60
2024-01-29T05:49:26.688Z,9.60
2024-01-29T05:51:54.123Z,9.50
2024-01-29T05:54:21.286Z,9.50
2024-01-29T05:56:51.217Z,9.60
2024-01-29T05:59:19.081Z,9.60
2024-01-29T06:01:47.666Z,9.60
2024-01-29T06:04:15.093Z,9.60
2024-01-29T06:06:42.834Z,9.50
2024-01-29T06:09:13.081Z,9.60
2024-01-29T06:11:40.209Z,9.60
2024-01-29T06:14:10.386Z,9.60
2024-01-29T06:16:37.509Z,9.60
2024-01-29T06:19:04.693Z,9.60
2024-01-29T06:21:32.049Z,9.60
2024-01-29T06:24:06.831Z,9.50
2024-01-29T06:26:34.589Z,9.50
2024-01-29T06:29:02.058Z,9.50
2024-01-29T06:31:29.173Z,9.50
2024-01-29T06:33:58.290Z,9.40
2024-01-29T06:36:26.836Z,9.40
2024-01-29T06:38:53.988Z,9.40
2024-01-29T06:41:23.052Z,9.40
2024-01-29T06:43:50.724Z,9.40
2024-01-29T06:46:17.985Z,9.40
2024-01-29T06:48:45.388Z,9.40
2024-01-29T06:51:17.353Z,9.40
2024-01-29T06:53:45.831Z,9.40
2024-01-29T06:56:12.985Z,9.40
2024-01-29T06:58:40.132Z,9.40
2024-01-29T07:01:07.846Z,9.40
2024-01-29T07:03:35.071Z,9.40
2024-01-29T07:06:02.409Z,9.40
2024-01-29T07:08:29.500Z,9.40
2024-01-29T07:10:59.021Z,9.40
2024-01-29T07:13:26.414Z,9.40
2024-01-29T07:15:54.135Z,9.40
2024-01-29T07:18:23.225Z,9.40
2024-01-29T07:20:53.538Z,9.40
2024-01-29T07:23:20.712Z,9.40
2024-01-29T07:25:47.976Z,9.40
2024-01-29T07:28:17.561Z,9.40
2024-01-29T07:30:44.788Z,9.40
2024-01-29T07:33:13.145Z,9.40
2024-01-29T07:35:40.389Z,9.40
2024-01-29T07:38:09.306Z,9.40
2024-01-29T07:40:36.596Z,9.40
2024-01-29T07:43:04.314Z,9.40
2024-01-29T07:45:31.637Z,9.40
2024-01-29T07:48:01.595Z,9.40
2024-01-29T07:50:29.913Z,9.40
2024-01-29T07:52:57.913Z,9.40
2024-01-29T07:55:33.915Z,9.50
2024-01-29T07:58:03.193Z,9.50
2024-01-29T08:00:31.673Z,9.50
2024-01-29T08:02:59.247Z,9.50
2024-01-29T08:05:26.325Z,9.50
2024-01-29T08:07:55.451Z,9.50
2024-01-29T08:10:27.171Z,9.50
2024-01-29T08:12:54.318Z,9.50
2024-01-29T08:15:22.265Z,9.50
2024-01-29T08:17:49.740Z,9.50
2024-01-29T08:20:18.139Z,9.50
2024-01-29T08:22:46.467Z,9.60
2024-01-29T08:25:13.519Z,9.60
2024-01-29T08:27:43.025Z,9.60
2024-01-29T08:30:12.533Z,9.60
2024-01-29T08:32:48.117Z,9.70
2024-01-29T08:35:18.175Z,9.70
2024-01-29T08:37:47.739Z,9.70
2024-01-29T08:40:17.868Z,9.70
2024-01-29T08:42:44.947Z,9.80
2024-01-29T08:45:20.216Z,9.80
2024-01-29T08:47:47.392Z,9.80
2024-01-29T08:50:16.444Z,9.90
2024-01-29T08:52:45.882Z,10.00
2024-01-29T08:55:13.186Z,10.00
2024-01-29T08:57:40.695Z,10.00
2024-01-29T09:00:10.559Z,10.00
2024-01-29T09:02:38.898Z,10.00
2024-01-29T09:05:06.392Z,10.00
2024-01-29T09:07:35.928Z,10.00
2024-01-29T09:10:06.083Z,10.00
2024-01-29T09:12:33.302Z,10.10
2024-01-29T09:15:00.773Z,10.10
2024-01-29T09:17:30.291Z,10.00
2024-01-29T09:19:58.774Z,10.00
2024-01-29T09:22:25.933Z,10.10
2024-01-29T09:24:56.553Z,10.10
2024-01-29T09:27:23.685Z,10.10
2024-01-29T09:29:50.744Z,10.20
2024-01-29T09:32:44.957Z,10.20
2024-01-29T09:35:12.535Z,10.20
2024-01-29T09:37:42.571Z,10.10
2024-01-29T09:40:22.137Z,10.10
2024-01-29T09:42:55.322Z,10.20
2024-01-29T09:45:26.054Z,10.10
2024-01-29T09:47:53.698Z,10.10
2024-01-29T09:50:26.589Z,10.10
2024-01-29T09:52:59.273Z,10.20
2024-01-29T09:55:35.173Z,10.20
2024-01-29T09:58:02.374Z,10.10
2024-01-29T10:00:31.956Z,10.10
2024-01-29T10:03:02.132Z,10.20
2024-01-29T10:05:34.464Z,10.20
2024-01-29T10:08:01.859Z,10.20
2024-01-29T10:10:31.609Z,10.20
2024-01-29T10:13:06.562Z,10.30
2024-01-29T10:15:40.709Z,10.30
2024-01-29T10:18:18.049Z,10.40
2024-01-29T10:20:47.138Z,10.50
2024-01-29T10:23:14.349Z,10.50
2024-01-29T10:25:43.052Z,10.50
2024-01-29T10:28:12.329Z,10.50
2024-01-29T10:30:43.051Z,10.50
2024-01-29T10:33:10.870Z,10.40
2024-01-29T10:35:41.264Z,10.50
2024-01-29T10:38:08.636Z,10.60
2024-01-29T10:40:42.369Z,10.70
2024-01-29T10:43:20.042Z,10.70
2024-01-29T10:45:52.656Z,10.80
2024-01-29T10:48:43.571Z,10.80
2024-01-29T10:51:23.600Z,10.80
2024-01-29T10:54:07.339Z,10.80
2024-01-29T10:56:34.494Z,10.90
2024-01-29T10:59:03.324Z,10.90
2024-01-29T11:01:32.608Z,10.90
2024-01-29T11:04:01.746Z,11.00
2024-01-29T11:06:32.175Z,11.00
2024-01-29T11:09:01.529Z,11.00
2024-01-29T11:11:29.369Z,11.10
2024-01-29T11:13:59.105Z,11.10
2024-01-29T11:16:26.278Z,11.10
2024-01-29T11:18:56.080Z,11.10
2024-01-29T11:21:41.459Z,11.00
2024-01-29T11:24:21.229Z,11.10
2024-01-29T11:27:02.945Z,11.10
2024-01-29T11:29:38.833Z,11.10
2024-01-29T11:32:17.495Z,11.10
2024-01-29T11:34:47.133Z,11.10
2024-01-29T11:37:26.538Z,11.10
2024-01-29T11:39:53.724Z,11.10
2024-01-29T11:42:21.055Z,11.10
2024-01-29T11:44:48.674Z,11.10
2024-01-29T11:47:16.122Z,11.10
2024-01-29T11:49:45.663Z,11.10
2024-01-29T11:52:13.117Z,11.10
2024-01-29T11:54:40.582Z,11.10
2024-01-29T11:57:09.265Z,11.10
2024-01-29T11:59:46.556Z,11.10
2024-01-29T12:02:18.591Z,11.10
2024-01-29T12:04:45.637Z,11.00
2024-01-29T12:07:12.876Z,10.90
2024-01-29T12:09:40.099Z,10.80
2024-01-29T12:12:13.634Z,10.60
2024-01-29T12:14:40.605Z,10.40
2024-01-29T12:17:08.030Z,10.30
2024-01-29T12:19:35.005Z,10.30
2024-01-29T12:22:02.210Z,10.30
2024-01-29T12:24:31.425Z,10.30
2024-01-29T12:26:58.411Z,10.30
2024-01-29T12:29:25.858Z,10.30
2024-01-29T12:31:52.987Z,10.30
2024-01-29T12:34:22.826Z,10.40
2024-01-29T12:36:57.363Z,10.50
2024-01-29T12:39:25.724Z,10.50
2024-01-29T12:41:52.703Z,10.60
2024-01-29T12:44:25.835Z,10.60
2024-01-29T12:46:59.946Z,10.60
2024-01-29T12:49:29.708Z,10.60
2024-01-29T12:51:58.906Z,10.70
2024-01-29T12:54:28.298Z,10.70
2024-01-29T12:56:57.677Z,10.70
2024-01-29T12:59:27.325Z,10.90
2024-01-29T13:01:58.156Z,10.90
2024-01-29T13:04:25.367Z,10.90
2024-01-29T13:06:55.159Z,10.90
2024-01-29T13:09:24.430Z,10.90
2024-01-29T13:11:51.430Z,10.90
2024-01-29T13:14:19.106Z,10.90
2024-01-29T13:16:46.174Z,10.80
2024-01-29T13:19:15.444Z,10.90
2024-01-29T13:21:43.906Z,10.90
2024-01-29T13:24:11.000Z,10.80
2024-01-29T13:26:42.195Z,10.80
2024-01-29T13:29:09.738Z,10.80
2024-01-29T13:31:38.657Z,10.80
2024-01-29T13:34:06.055Z,10.90
2024-01-29T13:36:34.609Z,10.90
2024-01-29T13:39:01.732Z,11.00
2024-01-29T13:41:28.742Z,10.90
2024-01-29T13:43:56.132Z,10.90
2024-01-29T13:46:25.480Z,10.90
2024-01-29T13:48:55.030Z,10.90
2024-01-29T13:51:26.775Z,10.90
2024-01-29T13:53:53.776Z,10.80
2024-01-29T13:56:21.886Z,10.70
2024-01-29T13:58:48.979Z,10.70
2024-01-29T14:01:16.741Z,10.70
2024-01-29T14:03:46.258Z,10.70
2024-01-29T14:06:18.657Z,10.70
2024-01-29T14:08:48.267Z,10.60
2024-01-29T14:11:17.620Z,10.60
2024-01-29T14:13:44.715Z,10.50
2024-01-29T14:16:11.936Z,10.50
2024-01-29T14:18:41.746Z,10.50
2024-01-29T14:21:09.080Z,10.50
2024-01-29T14:23:39.210Z,10.50
2024-01-29T14:26:06.298Z,10.50
2024-01-29T14:28:35.590Z,10.50
2024-01-29T14:31:04.838Z,10.50
2024-01-29T14:33:32.045Z,10.40
2024-01-29T14:35:59.452Z,10.40
2024-01-29T14:38:31.539Z,10.40
2024-01-29T14:40:58.806Z,10.40
2024-01-29T14:43:26.975Z,10.40
2024-01-29T14:45:54.032Z,10.40
2024-01-29T14:48:28.612Z,10.40
2024-01-29T14:50:56.107Z,10.40
2024-01-29T14:53:25.635Z,10.40
2024-01-29T14:55:55.215Z,10.40
2024-01-29T14:58:22.245Z,10.30
2024-01-29T15:00:49.473Z,10.30
2024-01-29T15:03:17.258Z,10.30
2024-01-29T15:05:46.578Z,10.30
2024-01-29T15:08:16.145Z,10.30
2024-01-29T15:10:43.124Z,10.30
2024-01-29T15:13:12.534Z,10.30
2024-01-29T15:15:43.566Z,10.30
2024-01-29T15:18:10.648Z,10.20
2024-01-29T15:20:40.362Z,10.20
2024-01-29T15:23:07.413Z,10.20
2024-01-29T15:25:34.672Z,10.20
2024-01-29T15:28:02.021Z,10.20
2024-01-29T15:30:29.161Z,10.20
2024-01-29T15:32:56.246Z,10.20
2024-01-29T15:35:26.478Z,10.20
2024-01-29T15:37:53.867Z,10.20
2024-01-29T15:40:21.311Z,10.10
2024-01-29T15:42:50.706Z,10.10
2024-01-29T15:45:18.332Z,10.10
2024-01-29T15:47:47.939Z,10.10
2024-01-29T15:50:15.805Z,10.00
2024-01-29T15:52:42.875Z,10.00
2024-01-29T15:55:10.056Z,10.00
2024-01-29T15:57:37.860Z,10.00
2024-01-29T16:00:05.742Z,10.00
2024-01-29T16:02:36.002Z,10.00
2024-01-29T16:05:08.890Z,10.00
2024-01-29T16:07:38.213Z,10.00
2024-01-29T16:10:12.032Z,10.00
2024-01-29T16:12:39.979Z,10.00
2024-01-29T16:15:10.048Z,10.00
2024-01-29T16:17:39.515Z,9.90
2024-01-29T16:20:09.513Z,10.00
2024-01-29T16:22:36.704Z,9.90
2024-01-29T16:25:04.303Z,9.90
2024-01-29T16:27:31.456Z,9.90
2024-01-29T16:30:02.842Z,9.90
2024-01-29T16:32:29.817Z,10.00
2024-01-29T16:34:59.473Z,10.00
2024-01-29T16:37:29.169Z,10.00
2024-01-29T16:39:56.455Z,10.00
2024-01-29T16:42:28.051Z,10.00
2024-01-29T16:44:55.265Z,10.00
2024-01-29T16:47:22.264Z,10.00
2024-01-29T16:49:51.192Z,10.00
2024-01-29T16:52:20.892Z,10.00
2024-01-29T16:54:48.304Z,10.00
2024-01-29T16:57:15.422Z,10.00
2024-01-29T16:59:42.394Z,10.00
2024-01-29T17:02:09.522Z,10.00
2024-01-29T17:04:36.972Z,10.00
2024-01-29T17:07:06.872Z,10.00
2024-01-29T17:09:37.811Z,10.00
2024-01-29T17:12:05.355Z,10.00
2024-01-29T17:14:35.140Z,10.00
2024-01-29T17:17:08.787Z,10.00
2024-01-29T17:19:35.920Z,10.00
2024-01-29T17:22:03.409Z,10.00
2024-01-29T17:24:32.746Z,9.90
2024-01-29T17:27:01.946Z,9.90
2024-01-29T17:29:30.303Z,9.90
2024-01-29T17:32:04.494Z,9.80
2024-01-29T17:34:32.461Z,9.80
2024-01-29T17:37:09.254Z,9.80
2024-01-29T17:39:38.653Z,9.80
2024-01-29T17:42:09.141Z,9.80
2024-01-29T17:44:40.124Z,9.80
2024-01-29T17:47:07.405Z,9.80
2024-01-29T17:49:39.288Z,9.80
2024-01-29T17:52:06.637Z,9.80
2024-01-29T17:54:33.766Z,9.80
2024-01-29T17:57:03.804Z,9.80
2024-01-29T17:59:36.756Z,9.80
2024-01-29T18:02:03.937Z,9.80
2024-01-29T18:04:31.148Z,9.80
2024-01-29T18:06:59.664Z,9.70
2024-01-29T18:09:26.866Z,9.70
2024-01-29T18:11:56.810Z,9.70
2024-01-29T18:14:24.499Z,9.70
2024-01-29T18:16:51.936Z,9.70
2024-01-29T18:19:21.652Z,9.70
2024-01-29T18:21:50.933Z,9.70
2024-01-29T18:24:20.870Z,9.70
2024-01-29T18:26:50.163Z,9.70
2024-01-29T18:29:22.223Z,9.70
2024-01-29T18:31:53.379Z,9.60
2024-01-29T18:34:20.508Z,9.60
2024-01-29T18:36:51.878Z,9.60
2024-01-29T18:39:18.992Z,9.60
2024-01-29T18:41:46.196Z,9.60
2024-01-29T18:44:15.606Z,9.60
2024-01-29T18:46:50.875Z,9.50
2024-01-29T18:49:18.945Z,9.50
2024-01-29T18:51:49.890Z,9.50
2024-01-29T18:54:22.564Z,9.50
2024-01-29T18:56:51.891Z,9.50
2024-01-29T18:59:19.372Z,9.50
2024-01-29T19:01:46.950Z,9.50
2024-01-29T19:04:14.420Z,9.50
2024-01-29T19:06:43.722Z,9.50
2024-01-29T19:09:15.531Z,9.50
2024-01-29T19:11:42.752Z,9.40
2024-01-29T19:14:09.898Z,9.40
2024-01-29T19:16:36.945Z,9.40
2024-01-29T19:19:09.014Z,9.50
2024-01-29T19:21:38.278Z,9.50
2024-01-29T19:24:07.932Z,9.40
2024-01-29T19:26:35.222Z,9.40
2024-01-29T19:29:04.891Z,9.40
2024-01-29T19:31:34.471Z,9.40
2024-01-29T19:34:01.527Z,9.40
2024-01-29T19:36:28.627Z,9.40
2024-01-29T19:38:55.775Z,9.40
2024-01-29T19:41:25.015Z,9.50
2024-01-29T19:43:52.002Z,9.50
2024-01-29T19:46:22.870Z,9.50
2024-01-29T19:48:49.925Z,9.50
2024-01-29T19:51:20.395Z,9.50
2024-01-29T19:53:49.538Z,9.50
2024-01-29T19:56:16.545Z,9.60
2024-01-29T19:58:52.603Z,9.60
2024-01-29T20:01:23.066Z,9.70
2024-01-29T20:03:50.271Z,9.80
2024-01-29T20:06:17.546Z,9.80
2024-01-29T20:08:44.579Z,9.90
2024-01-29T20:11:11.848Z,9.90
2024-01-29T20:13:41.113Z,9.90
2024-01-29T20:16:08.384Z,9.90
2024-01-29T20:18:39.940Z,10.00
2024-01-29T20:21:14.936Z,10.00
2024-01-29T20:23:42.719Z,10.00
2024-01-29T20:26:11.878Z,10.00
2024-01-29T20:28:39.694Z,10.10
2024-01-29T20:31:06.837Z,10.10
2024-01-29T20:33:37.094Z,10.10
2024-01-29T20:36:07.681Z,10.10
2024-01-29T20:38:36.133Z,10.10
2024-01-29T20:41:05.701Z,10.10
2024-01-29T20:43:37.356Z,10.10
2024-01-29T20:46:07.177Z,10.10
2024-01-29T20:48:36.583Z,10.10
2024-01-29T20:51:03.784Z,10.10
2024-01-29T20:53:30.769Z,10.10
2024-01-29T20:56:00.240Z,10.10
2024-01-29T20:58:29.387Z,10.10
2024-01-29T21:00:56.512Z,10.00
2024-01-29T21:03:28.253Z,10.00
2024-01-29T21:05:55.424Z,10.00
2024-01-29T21:08:22.677Z,10.00
2024-01-29T21:10:49.739Z,10.00
2024-01-29T21:13:19.272Z,10.00
2024-01-29T21:15:46.359Z,10.00
2024-01-29T21:18:13.402Z,10.00
2024-01-29T21:20:42.328Z,10.00
2024-01-29T21:23:11.638Z,10.00
2024-01-29T21:25:41.627Z,10.00
2024-01-29T21:28:11.058Z,10.00
2024-01-29T21:30:38.236Z,10.00
2024-01-29T21:33:05.597Z,10.00
2024-01-29T21:35:35.350Z,10.00
2024-01-29T21:38:02.425Z,10.00
2024-01-29T21:40:33.994Z,10.00
2024-01-29T21:43:01.086Z,10.00
2024-01-29T21:45:28.140Z,10.00
2024-01-29T21:47:55.268Z,10.00
2024-01-29T21:50:22.418Z,10.00
2024-01-29T21:52:52.199Z,10.00
2024-01-29T21:55:22.115Z,10.10
2024-01-29T21:57:51.357Z,10.20
2024-01-29T22:00:18.619Z,10.20
2024-01-29T22:02:47.840Z,10.20
2024-01-29T22:05:19.639Z,10.20
2024-01-29T22:07:46.731Z,10.20
2024-01-29T22:10:15.905Z,10.20
2024-01-29T22:12:43.008Z,10.20
2024-01-29T22:15:10.335Z,10.20
2024-01-29T22:17:40.116Z,10.20
2024-01-29T22:20:08.023Z,10.30
2024-01-29T22:22:35.118Z,10.30
2024-01-29T22:25:05.231Z,10.40
2024-01-29T22:27:34.432Z,10.40
2024-01-29T22:30:05.413Z,10.40
2024-01-29T22:32:32.864Z,10.30
2024-01-29T22:35:00.112Z,10.20
2024-01-29T22:37:30.118Z,10.10
2024-01-29T22:39:57.140Z,10.10
2024-01-29T22:42:24.373Z,10.20
2024-01-29T22:44:51.381Z,10.20
2024-01-29T22:47:20.946Z,10.20
2024-01-29T22:49:48.126Z,10.30
2024-01-29T22:52:15.277Z,10.30
2024-01-29T22:54:45.081Z,10.40
2024-01-29T22:57:14.327Z,10.40
2024-01-29T22:59:41.733Z,10.50
2024-01-29T23:02:11.651Z,10.50
2024-01-29T23:04:44.112Z,10.60
2024-01-29T23:07:11.861Z,10.60
2024-01-29T23:09:40.215Z,10.60
2024-01-29T23:12:07.648Z,10.50
2024-01-29T23:14:35.201Z,10.50
2024-01-29T23:17:04.584Z,10.50
2024-01-29T23:19:31.629Z,10.50
2024-01-29T23:21:59.056Z,10.50
2024-01-29T23:24:29.180Z,10.50
2024-01-29T23:26:56.141Z,10.50
2024-01-29T23:29:23.125Z,10.60
2024-01-29T23:31:52.329Z,10.60
2024-01-29T23:34:21.788Z,10.60
2024-01-29T23:36:51.390Z,10.60
2024-01-29T23:39:23.374Z,10.70
2024-01-29T23:41:50.551Z,10.70
2024-01-29T23:44:20.025Z,10.60
2024-01-29T23:46:47.030Z,10.60
2024-01-29T23:49:14.420Z,10.60
2024-01-29T23:51:43.927Z,10.70
2024-01-29T23:54:11.004Z,10.70
2024-01-29T23:56:38.017Z,10.70
2024-01-29T23:59:10.350Z,10.70
